createdAt,value
2018-01-20T00:00:53.249Z,84.70
2018-01-20T00:03:21.990Z,84.50
2018-01-20T00:05:51.396Z,84.60
2018-01-20T00:08:19.985Z,84.80
2018-01-20T00:11:00.473Z,84.90
2018-01-20T00:13:29.014Z,84.70
2018-01-20T00:15:57.657Z,84.80
2018-01-20T00:18:26.472Z,84.80
2018-01-20T00:20:56.045Z,82.20
2018-01-20T00:23:24.813Z,82.20
2018-01-20T00:25:59.260Z,80.60
2018-01-20T00:28:27.991Z,79.50
2018-01-20T00:30:56.741Z,78.00
2018-01-20T00:33:25.393Z,77.40
2018-01-20T00:35:53.991Z,76.40
2018-01-20T00:38:22.601Z,75.60
2018-01-20T00:40:51.294Z,75.00
2018-01-20T00:43:19.914Z,75.00
2018-01-20T00:45:48.522Z,75.30
2018-01-20T00:48:17.185Z,75.50
2018-01-20T00:50:45.838Z,75.50
2018-01-20T00:53:15.256Z,75.80
2018-01-20T00:55:43.880Z,75.70
2018-01-20T00:58:12.493Z,75.80
2018-01-20T01:00:41.966Z,76.10
2018-01-20T01:03:10.621Z,76.10
2018-01-20T01:05:39.256Z,76.40
2018-01-20T01:08:07.923Z,76.50
2018-01-20T01:10:36.531Z,76.50
2018-01-20T01:13:05.169Z,76.60
2018-01-20T01:15:34.560Z,76.70
2018-01-20T01:18:04.226Z,76.90
2018-01-20T01:20:33.123Z,76.80
2018-01-20T01:23:01.803Z,76.90
2018-01-20T01:25:30.691Z,76.90
2018-01-20T01:28:00.200Z,76.30
2018-01-20T01:30:28.823Z,76.20
2018-01-20T01:32:57.450Z,75.50
2018-01-20T01:35:26.053Z,75.20
2018-01-20T01:37:54.657Z,75.20
2018-01-20T01:40:23.270Z,75.00
2018-01-20T01:42:51.887Z,74.70
2018-01-20T01:45:20.591Z,74.40
2018-01-20T01:47:49.283Z,74.20
2018-01-20T01:50:17.903Z,74.10
2018-01-20T01:52:46.561Z,73.70
2018-01-20T01:55:15.286Z,73.50
2018-01-20T01:57:44.777Z,72.70
2018-01-20T02:00:13.446Z,72.60
2018-01-20T02:02:42.276Z,72.90
2018-01-20T02:05:11.863Z,72.60
2018-01-20T02:07:40.509Z,72.60
2018-01-20T02:10:09.201Z,72.60
2018-01-20T02:12:37.769Z,72.80
2018-01-20T02:15:06.496Z,73.00
2018-01-20T02:17:35.224Z,73.10
2018-01-20T02:20:03.919Z,73.00
2018-01-20T02:22:32.890Z,73.40
2018-01-20T02:25:01.587Z,73.40
2018-01-20T02:27:30.248Z,73.10
2018-01-20T02:29:59.669Z,72.90
2018-01-20T02:32:28.382Z,72.80
2018-01-20T02:34:57.107Z,72.80
2018-01-20T02:37:25.771Z,72.80
2018-01-20T02:39:54.755Z,72.70
2018-01-20T02:42:23.492Z,72.30
2018-01-20T02:44:52.083Z,71.80
2018-01-20T02:47:20.883Z,71.90
2018-01-20T02:49:49.526Z,72.00
2018-01-20T02:52:18.210Z,72.00
2018-01-20T02:54:46.888Z,72.10
2018-01-20T02:57:15.540Z,71.80
2018-01-20T02:59:44.191Z,71.90
2018-01-20T03:02:13.654Z,71.80
2018-01-20T03:04:42.248Z,71.80
2018-01-20T03:07:10.843Z,72.00
2018-01-20T03:09:39.463Z,72.00
2018-01-20T03:12:08.026Z,72.20
2018-01-20T03:14:36.685Z,72.10
2018-01-20T03:17:05.365Z,72.20
2018-01-20T03:19:34.041Z,72.40
2018-01-20T03:22:02.655Z,72.20
2018-01-20T03:24:31.334Z,72.40
2018-01-20T03:26:59.963Z,72.40
2018-01-20T03:29:29.373Z,72.40
2018-01-20T03:31:58.019Z,72.40
2018-01-20T03:34:27.789Z,72.60
2018-01-20T03:37:01.511Z,72.70
2018-01-20T03:39:30.812Z,72.60
2018-01-20T03:42:00.732Z,72.70
2018-01-20T03:44:29.726Z,73.20
2018-01-20T03:46:58.365Z,72.80
2018-01-20T03:49:27.009Z,72.80
2018-01-20T03:51:57.153Z,72.90
2018-01-20T03:54:25.789Z,73.20
2018-01-20T03:56:55.051Z,73.20
2018-01-20T03:59:23.744Z,73.00
2018-01-20T04:01:52.414Z,73.40
2018-01-20T04:04:21.795Z,73.70
2018-01-20T04:06:51.400Z,73.70
2018-01-20T04:09:20.836Z,73.50
2018-01-20T04:11:49.588Z,73.50
2018-01-20T04:14:18.352Z,73.50
2018-01-20T04:16:47.087Z,73.60
2018-01-20T04:19:16.089Z,73.40
2018-01-20T04:21:44.788Z,73.40
2018-01-20T04:24:13.461Z,73.70
2018-01-20T04:26:42.221Z,72.70
2018-01-20T04:29:10.919Z,72.70
2018-01-20T04:31:39.527Z,73.60
2018-01-20T04:34:08.978Z,73.50
2018-01-20T04:36:37.623Z,73.50
2018-01-20T04:39:06.404Z,73.90
2018-01-20T04:41:35.174Z,73.90
2018-01-20T04:44:04.000Z,74.00
2018-01-20T04:46:32.892Z,73.90
2018-01-20T04:49:01.575Z,74.20
2018-01-20T04:51:30.330Z,74.40
2018-01-20T04:53:59.051Z,74.60
2018-01-20T04:56:27.801Z,74.20
2018-01-20T04:58:58.266Z,74.70
2018-01-20T05:01:26.961Z,74.70
2018-01-20T05:03:55.672Z,74.70
2018-01-20T05:06:24.465Z,74.80
2018-01-20T05:08:53.258Z,74.90
2018-01-20T05:11:21.933Z,75.10
2018-01-20T05:13:50.564Z,75.10
2018-01-20T05:16:19.246Z,75.30
2018-01-20T05:18:48.606Z,75.40
2018-01-20T05:21:17.396Z,75.30
2018-01-20T05:23:45.974Z,75.50
2018-01-20T05:26:14.566Z,75.80
2018-01-20T05:28:43.462Z,75.50
2018-01-20T05:31:12.083Z,75.00
2018-01-20T05:33:40.652Z,75.00
2018-01-20T05:36:09.508Z,75.30
2018-01-20T05:38:38.091Z,75.50
2018-01-20T05:41:06.681Z,75.60
2018-01-20T05:43:36.165Z,75.50
2018-01-20T05:46:04.759Z,75.40
2018-01-20T05:48:33.548Z,75.70
2018-01-20T05:51:02.184Z,75.80
2018-01-20T05:53:30.807Z,75.00
2018-01-20T05:55:59.442Z,74.60
2018-01-20T05:58:28.110Z,75.40
2018-01-20T06:00:56.745Z,75.70
2018-01-20T06:03:25.334Z,75.50
2018-01-20T06:05:54.714Z,75.90
2018-01-20T06:08:23.461Z,75.90
2018-01-20T06:10:52.072Z,76.30
2018-01-20T06:13:20.711Z,76.40
2018-01-20T06:15:49.356Z,76.40
2018-01-20T06:18:18.363Z,76.40
2018-01-20T06:20:47.037Z,76.50
2018-01-20T06:23:15.686Z,76.10
2018-01-20T06:25:44.289Z,76.10
2018-01-20T06:28:12.929Z,76.10
2018-01-20T06:30:41.506Z,75.80
2018-01-20T06:33:10.114Z,76.30
2018-01-20T06:35:38.805Z,77.00
2018-01-20T06:38:07.369Z,76.50
2018-01-20T06:40:35.996Z,76.60
2018-01-20T06:43:04.665Z,76.40
2018-01-20T06:45:33.286Z,76.30
2018-01-20T06:48:01.934Z,75.90
2018-01-20T06:50:30.603Z,76.20
2018-01-20T06:52:59.227Z,76.40
2018-01-20T06:55:27.951Z,76.70
2018-01-20T06:57:57.383Z,76.80
2018-01-20T07:00:26.037Z,76.70
2018-01-20T07:02:54.695Z,76.30
2018-01-20T07:05:24.078Z,75.90
2018-01-20T07:07:52.701Z,75.90
2018-01-20T07:10:21.383Z,75.50
2018-01-20T07:12:50.318Z,75.60
2018-01-20T07:15:19.206Z,76.00
2018-01-20T07:17:48.779Z,74.80
2018-01-20T07:20:18.428Z,75.00
2018-01-20T07:22:47.063Z,74.90
2018-01-20T07:25:15.708Z,75.10
2018-01-20T07:27:44.386Z,75.30
2018-01-20T07:30:13.039Z,75.50
2018-01-20T07:32:41.664Z,75.70
2018-01-20T07:35:10.290Z,75.70
2018-01-20T07:37:38.880Z,75.40
2018-01-20T07:40:12.417Z,75.20
2018-01-20T07:42:41.054Z,75.10
2018-01-20T07:45:09.705Z,75.10
2018-01-20T07:47:38.292Z,74.40
2018-01-20T07:50:06.999Z,74.40
2018-01-20T07:52:35.598Z,74.20
2018-01-20T07:55:04.293Z,74.00
2018-01-20T07:57:33.617Z,73.80
2018-01-20T08:00:02.225Z,73.80
2018-01-20T08:02:30.934Z,73.60
2018-01-20T08:05:00.177Z,73.50
2018-01-20T08:07:29.623Z,73.60
2018-01-20T08:09:58.254Z,73.60
2018-01-20T08:12:26.888Z,73.40
2018-01-20T08:14:55.486Z,73.40
2018-01-20T08:17:24.102Z,73.30
2018-01-20T08:19:53.486Z,72.50
2018-01-20T08:22:22.081Z,72.50
2018-01-20T08:24:51.543Z,72.00
2018-01-20T08:27:20.941Z,72.20
2018-01-20T08:29:49.544Z,72.10
2018-01-20T08:32:18.208Z,71.60
2018-01-20T08:34:46.817Z,71.40
2018-01-20T08:37:15.419Z,71.60
2018-01-20T08:39:44.041Z,71.60
2018-01-20T08:42:12.724Z,71.50
2018-01-20T08:44:41.350Z,72.00
2018-01-20T08:47:17.901Z,72.20
2018-01-20T08:49:46.535Z,72.80
2018-01-20T08:52:15.250Z,73.20
2018-01-20T08:54:43.891Z,73.20
2018-01-20T08:57:12.585Z,73.60
2018-01-20T08:59:41.206Z,73.00
2018-01-20T09:02:09.818Z,73.00
2018-01-20T09:04:38.421Z,72.90
2018-01-20T09:07:07.086Z,72.50
2018-01-20T09:09:35.831Z,71.90
2018-01-20T09:12:05.319Z,71.90
2018-01-20T09:14:33.950Z,70.70
2018-01-20T09:17:02.550Z,70.00
2018-01-20T09:19:31.335Z,70.10
2018-01-20T09:21:59.966Z,70.40
2018-01-20T09:24:28.665Z,69.70
2018-01-20T09:26:57.291Z,70.20
2018-01-20T09:29:25.865Z,70.00
2018-01-20T09:31:54.503Z,70.10
2018-01-20T09:34:23.096Z,70.40
2018-01-20T09:39:49.960Z,70.90
2018-01-20T09:42:19.344Z,71.60
2018-01-20T09:44:48.703Z,70.60
2018-01-20T09:47:17.328Z,70.70
2018-01-20T09:49:46.016Z,70.50
2018-01-20T09:52:14.798Z,70.10
2018-01-20T09:54:43.647Z,70.00
2018-01-20T09:57:12.253Z,70.20
2018-01-20T09:59:41.035Z,70.30
2018-01-20T10:02:09.693Z,70.30
2018-01-20T10:04:38.297Z,70.60
2018-01-20T10:07:06.906Z,70.90
2018-01-20T10:09:35.598Z,71.10
2018-01-20T10:12:04.238Z,71.00
2018-01-20T10:14:32.832Z,71.40
2018-01-20T10:17:02.449Z,71.20
2018-01-20T10:19:31.094Z,71.30
2018-01-20T10:21:59.709Z,70.30
2018-01-20T10:24:28.513Z,70.50
2018-01-20T10:26:57.167Z,70.30
2018-01-20T10:29:25.781Z,70.30
2018-01-20T10:31:54.558Z,70.40
2018-01-20T10:34:23.206Z,70.50
2018-01-20T10:36:51.818Z,70.30
2018-01-20T10:39:20.426Z,69.80
2018-01-20T10:41:49.014Z,69.60
2018-01-20T10:44:17.698Z,69.70
2018-01-20T10:46:46.400Z,69.60
2018-01-20T10:49:15.017Z,69.30
2018-01-20T10:51:44.468Z,68.60
2018-01-20T10:54:13.209Z,68.60
2018-01-20T10:56:42.047Z,67.80
2018-01-20T10:59:10.657Z,66.80
2018-01-20T11:01:39.297Z,66.90
2018-01-20T11:04:08.112Z,67.00
2018-01-20T11:06:36.737Z,66.90
2018-01-20T11:09:05.535Z,66.60
2018-01-20T11:11:34.988Z,66.20
2018-01-20T11:14:03.618Z,66.10
2018-01-20T11:16:32.342Z,66.40
2018-01-20T11:19:01.058Z,66.60
2018-01-20T11:21:29.680Z,66.00
2018-01-20T11:23:58.347Z,66.40
2018-01-20T11:26:26.937Z,66.80
2018-01-20T11:28:55.554Z,66.00
2018-01-20T11:31:24.248Z,66.00
2018-01-20T11:36:50.322Z,65.80
2018-01-20T11:39:18.966Z,65.10
2018-01-20T11:41:48.606Z,64.60
2018-01-20T11:44:17.500Z,64.60
2018-01-20T11:46:46.334Z,64.50
2018-01-20T11:49:15.894Z,65.10
2018-01-20T11:51:44.787Z,65.00
2018-01-20T11:54:13.681Z,65.00
2018-01-20T11:56:42.363Z,65.30
2018-01-20T11:59:11.050Z,65.60
2018-01-20T12:01:39.940Z,65.50
2018-01-20T12:04:08.627Z,66.20
2018-01-20T12:06:37.329Z,66.10
2018-01-20T12:09:06.152Z,66.00
2018-01-20T12:11:34.764Z,66.10
2018-01-20T12:14:03.986Z,65.90
2018-01-20T12:16:32.980Z,65.80
2018-01-20T12:19:01.773Z,66.00
2018-01-20T12:21:30.561Z,66.80
2018-01-20T12:23:59.445Z,67.10
2018-01-20T12:26:28.160Z,67.70
2018-01-20T12:28:57.125Z,67.30
2018-01-20T12:31:25.953Z,67.30
2018-01-20T12:33:55.511Z,66.80
2018-01-20T12:36:24.616Z,66.80
2018-01-20T12:38:54.531Z,67.00
2018-01-20T12:41:23.665Z,67.10
2018-01-20T12:43:53.441Z,66.40
2018-01-20T12:46:23.095Z,67.20
2018-01-20T12:48:52.247Z,67.20
2018-01-20T12:51:21.239Z,66.90
2018-01-20T12:53:50.131Z,66.60
2018-01-20T12:56:18.828Z,66.20
2018-01-20T12:58:47.711Z,65.30
2018-01-20T13:01:16.553Z,63.30
2018-01-20T13:03:45.500Z,63.30
2018-01-20T13:06:14.342Z,63.30
2018-01-20T13:08:43.421Z,63.00
2018-01-20T13:11:12.779Z,62.90
2018-01-20T13:13:41.680Z,63.20
2018-01-20T13:16:10.778Z,61.20
2018-01-20T13:18:40.066Z,59.80
2018-01-20T13:21:09.774Z,59.80
2018-01-20T13:23:38.466Z,59.00
2018-01-20T13:26:07.156Z,59.10
2018-01-20T13:28:36.009Z,58.20
2018-01-20T13:31:05.484Z,58.00
2018-01-20T13:33:34.179Z,58.10
2018-01-20T13:36:03.026Z,56.80
2018-01-20T13:38:31.811Z,55.70
2018-01-20T13:41:00.705Z,55.90
2018-01-20T13:43:29.594Z,55.30
2018-01-20T13:45:58.279Z,55.60
2018-01-20T13:48:27.167Z,55.60
2018-01-20T13:50:56.065Z,53.60
2018-01-20T13:53:24.951Z,53.10
2018-01-20T13:55:53.637Z,52.40
2018-01-20T13:58:22.532Z,52.60
2018-01-20T14:00:51.424Z,52.90
2018-01-20T14:03:20.109Z,52.80
2018-01-20T14:05:49.097Z,52.90
2018-01-20T14:08:17.996Z,53.20
2018-01-20T14:10:46.677Z,53.40
2018-01-20T14:13:15.568Z,53.60
2018-01-20T14:15:45.290Z,53.90
2018-01-20T14:18:14.064Z,53.00
2018-01-20T14:20:43.058Z,54.00
2018-01-20T14:23:11.847Z,53.40
2018-01-20T14:25:40.745Z,53.50
2018-01-20T14:28:09.633Z,54.00
2018-01-20T14:30:38.267Z,53.40
2018-01-20T14:33:06.896Z,52.80
2018-01-20T14:35:36.187Z,53.00
2018-01-20T14:38:05.308Z,52.90
2018-01-20T14:40:34.088Z,51.20
2018-01-20T14:43:02.976Z,52.40
2018-01-20T14:45:31.878Z,52.00
2018-01-20T14:48:00.559Z,52.40
2018-01-20T14:50:29.441Z,51.90
2018-01-20T14:52:58.230Z,51.40
2018-01-20T14:55:27.125Z,51.80
2018-01-20T14:57:56.014Z,52.40
2018-01-20T15:00:24.701Z,51.30
2018-01-20T15:02:53.683Z,51.20
2018-01-20T15:05:22.703Z,50.90
2018-01-20T15:07:51.377Z,50.80
2018-01-20T15:10:21.296Z,50.60
2018-01-20T15:12:50.332Z,50.20
2018-01-20T15:15:19.078Z,50.50
2018-01-20T15:17:48.990Z,50.10
2018-01-20T15:20:19.020Z,50.20
2018-01-20T15:22:48.020Z,50.00
2018-01-20T15:28:15.693Z,49.70
2018-01-20T15:30:44.773Z,50.20
2018-01-20T15:33:13.716Z,49.50
2018-01-20T15:35:43.794Z,49.60
2018-01-20T15:38:12.759Z,49.60
2018-01-20T15:40:41.814Z,49.80
2018-01-20T15:43:11.689Z,49.40
2018-01-20T15:45:40.584Z,49.30
2018-01-20T15:48:09.773Z,49.50
2018-01-20T15:53:36.498Z,49.60
2018-01-20T15:56:05.912Z,49.60
2018-01-20T15:58:35.009Z,49.80
2018-01-20T16:01:04.034Z,49.90
2018-01-20T16:03:33.731Z,50.30
2018-01-20T16:06:02.723Z,49.30
2018-01-20T16:08:31.946Z,50.00
2018-01-20T16:11:01.247Z,51.90
2018-01-20T16:13:30.469Z,53.70
2018-01-20T16:15:59.510Z,54.60
2018-01-20T16:18:28.863Z,53.40
2018-01-20T16:20:58.209Z,55.90
2018-01-20T16:23:28.167Z,57.20
2018-01-20T16:25:57.555Z,59.60
2018-01-20T16:28:27.239Z,60.80
2018-01-20T16:30:56.258Z,60.80
2018-01-20T16:33:25.502Z,60.90
2018-01-20T16:35:54.703Z,61.00
2018-01-20T16:38:24.566Z,59.90
2018-01-20T16:40:53.454Z,59.70
2018-01-20T16:43:22.344Z,60.50
2018-01-20T16:45:51.236Z,60.00
2018-01-20T16:48:20.125Z,54.70
2018-01-20T16:50:49.930Z,52.70
2018-01-20T16:53:18.936Z,52.70
2018-01-20T16:55:48.360Z,53.70
2018-01-20T16:58:17.361Z,52.20
2018-01-20T17:00:46.526Z,51.80
2018-01-20T17:03:15.818Z,52.60
2018-01-20T17:05:44.927Z,51.60
2018-01-20T17:08:13.971Z,51.30
2018-01-20T17:10:42.870Z,52.30
2018-01-20T17:13:12.126Z,51.70
2018-01-20T17:15:41.312Z,51.80
2018-01-20T17:18:10.621Z,51.60
2018-01-20T17:20:39.724Z,52.70
2018-01-20T17:23:08.549Z,54.40
2018-01-20T17:25:38.403Z,57.10
2018-01-20T17:28:07.349Z,57.10
2018-01-20T17:30:36.539Z,58.40
2018-01-20T17:33:06.420Z,58.20
2018-01-20T17:35:35.739Z,58.10
2018-01-20T17:38:04.996Z,57.10
2018-01-20T17:40:33.802Z,56.30
2018-01-20T17:43:02.765Z,56.30
2018-01-20T17:45:31.896Z,54.40
2018-01-20T17:48:01.790Z,54.90
2018-01-20T17:50:30.699Z,54.90
2018-01-20T17:52:59.693Z,54.80
2018-01-20T17:55:28.584Z,55.10
2018-01-20T17:57:57.483Z,55.40
2018-01-20T18:00:26.367Z,55.80
2018-01-20T18:02:55.258Z,55.90
2018-01-20T18:05:24.147Z,56.30
2018-01-20T18:07:52.939Z,56.50
2018-01-20T18:10:21.622Z,56.60
2018-01-20T18:12:50.305Z,57.10
2018-01-20T18:15:19.199Z,57.00
2018-01-20T18:17:48.088Z,57.20
2018-01-20T18:20:16.981Z,57.70
2018-01-20T18:22:45.664Z,58.40
2018-01-20T18:25:14.555Z,58.10
2018-01-20T18:27:43.345Z,58.30
2018-01-20T18:30:12.234Z,58.80
2018-01-20T18:32:40.887Z,59.10
2018-01-20T18:35:10.534Z,59.50
2018-01-20T18:37:39.222Z,59.50
2018-01-20T18:40:07.904Z,59.80
2018-01-20T18:42:36.591Z,59.90
2018-01-20T18:45:06.349Z,59.90
2018-01-20T18:47:35.195Z,60.40
2018-01-20T18:50:03.883Z,60.30
2018-01-20T18:52:32.719Z,60.60
2018-01-20T18:55:02.276Z,61.00
2018-01-20T18:57:31.265Z,61.00
2018-01-20T18:59:59.951Z,61.30
2018-01-20T19:02:28.640Z,62.00
2018-01-20T19:04:57.530Z,62.00
2018-01-20T19:07:26.218Z,62.00
2018-01-20T19:09:55.312Z,62.70
2018-01-20T19:12:24.075Z,63.20
2018-01-20T19:14:52.890Z,62.80
2018-01-20T19:17:21.576Z,63.30
2018-01-20T19:19:50.411Z,63.60
2018-01-20T19:22:19.972Z,64.10
2018-01-20T19:24:48.867Z,64.00
2018-01-20T19:27:17.755Z,64.40
2018-01-20T19:29:46.477Z,64.60
2018-01-20T19:32:15.374Z,65.00
2018-01-20T19:34:44.490Z,64.90
2018-01-20T19:37:13.214Z,64.90
2018-01-20T19:39:41.902Z,65.30
2018-01-20T19:42:10.793Z,65.40
2018-01-20T19:44:39.695Z,66.20
2018-01-20T19:47:08.578Z,65.70
2018-01-20T19:49:37.469Z,66.30
2018-01-20T19:52:06.303Z,66.00
2018-01-20T19:54:35.045Z,66.30
2018-01-20T19:57:03.933Z,66.70
2018-01-20T19:59:32.618Z,66.60
2018-01-20T20:02:01.306Z,67.40
2018-01-20T20:04:30.202Z,66.80
2018-01-20T20:06:58.837Z,66.70
2018-01-20T20:09:27.724Z,67.00
2018-01-20T20:11:56.469Z,67.30
2018-01-20T20:14:25.300Z,67.30
2018-01-20T20:16:54.042Z,67.30
2018-01-20T20:19:22.724Z,67.50
2018-01-20T20:21:51.568Z,67.60
2018-01-20T20:24:20.505Z,67.80
2018-01-20T20:26:49.337Z,67.90
2018-01-20T20:29:18.256Z,68.20
2018-01-20T20:31:47.075Z,68.20
2018-01-20T20:34:15.761Z,69.50
2018-01-20T20:36:44.652Z,68.40
2018-01-20T20:39:14.109Z,68.60
2018-01-20T20:41:43.771Z,68.90
2018-01-20T20:44:12.458Z,68.90
2018-01-20T20:46:42.588Z,68.90
2018-01-20T20:49:12.082Z,69.10
2018-01-20T20:51:40.969Z,69.10
2018-01-20T20:54:09.893Z,68.90
2018-01-20T20:56:38.654Z,69.30
2018-01-20T20:59:07.335Z,69.00
2018-01-20T21:01:36.021Z,69.20
2018-01-20T21:04:05.264Z,69.10
2018-01-20T21:06:33.905Z,69.40
2018-01-20T21:09:02.592Z,69.60
2018-01-20T21:11:31.740Z,69.70
2018-01-20T21:14:00.479Z,70.00
2018-01-20T21:16:29.165Z,69.90
2018-01-20T21:18:58.063Z,70.00
2018-01-20T21:21:26.726Z,70.10
2018-01-20T21:23:55.433Z,70.40
2018-01-20T21:26:24.317Z,70.70
2018-01-20T21:28:53.213Z,71.00
2018-01-20T21:31:22.110Z,71.00
2018-01-20T21:33:50.996Z,71.30
2018-01-20T21:36:20.306Z,71.50
2018-01-20T21:38:50.021Z,71.60
2018-01-20T21:41:19.670Z,71.90
2018-01-20T21:43:48.770Z,72.30
2018-01-20T21:46:17.705Z,72.30
2018-01-20T21:48:47.412Z,72.60
2018-01-20T21:51:16.216Z,72.60
2018-01-20T21:53:45.204Z,72.80
2018-01-20T21:56:15.726Z,73.20
2018-01-20T21:58:44.614Z,73.10
2018-01-20T22:01:13.301Z,73.40
2018-01-20T22:03:42.902Z,73.80
2018-01-20T22:06:16.172Z,74.40
2018-01-20T22:08:45.093Z,74.40
2018-01-20T22:11:13.765Z,74.40
2018-01-20T22:13:42.479Z,74.70
2018-01-20T22:19:02.779Z,74.70
2018-01-20T22:21:31.463Z,75.00
2018-01-20T22:24:01.286Z,75.30
2018-01-20T22:26:30.983Z,75.60
2018-01-20T22:28:59.884Z,75.50
2018-01-20T22:31:29.383Z,75.90
2018-01-20T22:33:58.063Z,75.90
2018-01-20T22:36:26.858Z,75.90
2018-01-20T22:38:55.848Z,76.10
2018-01-20T22:41:24.682Z,76.20
2018-01-20T22:43:54.512Z,76.20
2018-01-20T22:46:24.209Z,76.20
2018-01-20T22:48:53.150Z,76.30
2018-01-20T22:51:21.840Z,76.50
2018-01-20T22:53:50.525Z,76.70
2018-01-20T22:56:19.171Z,76.80
2018-01-20T22:58:47.749Z,76.70
2018-01-20T23:01:22.221Z,76.90
2018-01-20T23:03:51.117Z,77.50
2018-01-20T23:06:19.813Z,76.50
2018-01-20T23:08:48.685Z,76.80
2018-01-20T23:11:17.580Z,77.10
2018-01-20T23:13:46.364Z,77.10
2018-01-20T23:16:16.113Z,77.20
2018-01-20T23:18:44.937Z,77.30
2018-01-20T23:21:13.657Z,77.60
2018-01-20T23:23:42.425Z,77.70
2018-01-20T23:26:11.232Z,77.80
2018-01-20T23:28:39.918Z,77.90
2018-01-20T23:31:08.805Z,78.20
2018-01-20T23:33:37.797Z,78.30
2018-01-20T23:36:06.894Z,78.40
2018-01-20T23:38:35.785Z,78.50
2018-01-20T23:41:04.591Z,78.50
2018-01-20T23:43:33.486Z,78.60
2018-01-20T23:46:03.246Z,78.70
2018-01-20T23:48:32.039Z,78.70
2018-01-20T23:51:00.753Z,78.50
2018-01-20T23:53:29.441Z,78.60
2018-01-20T23:55:58.340Z,78.60
2018-01-20T23:58:27.021Z,78.60
